KLM1015 EHAM-EGLC
Flight info
| Callsign | KLM1015 |
|---|---|
| Flight time | 0h 46m |
| Altitude | 20000 |
| Route | IDRID L980 XAMAN |
| Aircraft | E190/M-SDE3GILORVW/S |
Departure
| Time | 2026-05-05 18:09 |
|---|---|
| Airport | Amsterdam Airport Schiphol (EHAM) |
Arrival
| Time | 2026-05-05 18:55 |
|---|---|
| Airport | London City Airport (EGLC) |
| Time | Latitude | Longitude | Altitude | Speed | Heading |
|---|---|---|---|---|---|
| 2026-05-05 17:30 | 52.30410 | 4.76361 | -2 ft | 0 kts | 238° |
| 2026-05-05 17:58 | 52.30422 | 4.76392 | -2 ft | 4 kts | 233° |
| 2026-05-05 17:58 | 52.30439 | 4.76419 | -2 ft | 4 kts | 181° |
| 2026-05-05 17:59 | 52.30446 | 4.76419 | -2 ft | 2 kts | 158° |
| 2026-05-05 18:03 | 52.30445 | 4.76421 | -2 ft | 0 kts | 149° |
| 2026-05-05 18:03 | 52.30441 | 4.76427 | -2 ft | 2 kts | 143° |
| 2026-05-05 18:03 | 52.30424 | 4.76447 | -2 ft | 4 kts | 145° |
| 2026-05-05 18:03 | 52.30391 | 4.76481 | -2 ft | 7 kts | 148° |
| 2026-05-05 18:04 | 52.30335 | 4.76536 | -2 ft | 11 kts | 158° |
| 2026-05-05 18:04 | 52.30270 | 4.76457 | -2 ft | 15 kts | 238° |
| 2026-05-05 18:04 | 52.30209 | 4.76297 | -2 ft | 19 kts | 238° |
| 2026-05-05 18:04 | 52.30132 | 4.76097 | -2 ft | 23 kts | 238° |
| 2026-05-05 18:05 | 52.30042 | 4.75865 | -2 ft | 25 kts | 237° |
| 2026-05-05 18:05 | 52.29944 | 4.75606 | -2 ft | 28 kts | 238° |
| 2026-05-05 18:05 | 52.29839 | 4.75335 | -2 ft | 25 kts | 240° |
| 2026-05-05 18:05 | 52.29895 | 4.75096 | -2 ft | 24 kts | 311° |
| 2026-05-05 18:06 | 52.30008 | 4.74888 | -2 ft | 24 kts | 311° |
| 2026-05-05 18:06 | 52.30082 | 4.74753 | 0 ft | 24 kts | 313° |
| 2026-05-05 18:06 | 52.30206 | 4.74520 | 10 ft | 20 kts | 312° |
| 2026-05-05 18:06 | 52.30296 | 4.74356 | 6 ft | 20 kts | 310° |
| 2026-05-05 18:07 | 52.30366 | 4.74129 | -2 ft | 23 kts | 253° |
| 2026-05-05 18:07 | 52.30247 | 4.73949 | -2 ft | 24 kts | 216° |
| 2026-05-05 18:07 | 52.30195 | 4.73738 | -3 ft | 11 kts | 291° |
| 2026-05-05 18:07 | 52.30212 | 4.73725 | -4 ft | 2 kts | 18° |
| 2026-05-05 18:08 | 52.30234 | 4.73737 | -4 ft | 5 kts | 18° |
| 2026-05-05 18:08 | 52.30243 | 4.73740 | -5 ft | 0 kts | 8° |
| 2026-05-05 18:08 | 52.30270 | 4.73744 | -5 ft | 20 kts | 4° |
| 2026-05-05 18:08 | 52.30660 | 4.73780 | -4 ft | 90 kts | 3° |
| 2026-05-05 18:09 | 52.31495 | 4.73861 | -1 ft | 148 kts | 4° |
| 2026-05-05 18:09 | 52.32623 | 4.73958 | 367 ft | 177 kts | 4° |
| 2026-05-05 18:09 | 52.33919 | 4.73897 | 1250 ft | 191 kts | 349° |
| 2026-05-05 18:09 | 52.35117 | 4.73306 | 2432 ft | 174 kts | 349° |
| 2026-05-05 18:10 | 52.36293 | 4.72668 | 3137 ft | 181 kts | 343° |
| 2026-05-05 18:10 | 52.37485 | 4.71846 | 3785 ft | 190 kts | 344° |
| 2026-05-05 18:10 | 52.38756 | 4.71084 | 4433 ft | 198 kts | 343° |
| 2026-05-05 18:10 | 52.40068 | 4.70320 | 5168 ft | 199 kts | 344° |
| 2026-05-05 18:11 | 52.41398 | 4.69561 | 5810 ft | 207 kts | 343° |
| 2026-05-05 18:11 | 52.42791 | 4.68811 | 6120 ft | 218 kts | 340° |
| 2026-05-05 18:11 | 52.44019 | 4.67389 | 6071 ft | 218 kts | 310° |
| 2026-05-05 18:11 | 52.44565 | 4.65054 | 6003 ft | 229 kts | 276° |
| 2026-05-05 18:12 | 52.44252 | 4.62312 | 6243 ft | 260 kts | 252° |
| 2026-05-05 18:12 | 52.43472 | 4.59579 | 6988 ft | 270 kts | 242° |
| 2026-05-05 18:12 | 52.42422 | 4.56999 | 7764 ft | 277 kts | 233° |
| 2026-05-05 18:12 | 52.41102 | 4.54659 | 8594 ft | 282 kts | 223° |
| 2026-05-05 18:13 | 52.39430 | 4.52923 | 9410 ft | 288 kts | 208° |
| 2026-05-05 18:13 | 52.37847 | 4.50961 | 10208 ft | 294 kts | 226° |
| 2026-05-05 18:13 | 52.36401 | 4.48366 | 10619 ft | 315 kts | 229° |
| 2026-05-05 18:13 | 52.34889 | 4.45613 | 11065 ft | 335 kts | 229° |
| 2026-05-05 18:14 | 52.33329 | 4.42762 | 11685 ft | 345 kts | 229° |
| 2026-05-05 18:14 | 52.31721 | 4.39806 | 12590 ft | 349 kts | 229° |
| 2026-05-05 18:14 | 52.30094 | 4.36842 | 13610 ft | 351 kts | 228° |
| 2026-05-05 18:14 | 52.28404 | 4.33936 | 14547 ft | 354 kts | 226° |
| 2026-05-05 18:15 | 52.26770 | 4.30902 | 15491 ft | 357 kts | 233° |
| 2026-05-05 18:15 | 52.25418 | 4.27466 | 16373 ft | 362 kts | 240° |
| 2026-05-05 18:15 | 52.24264 | 4.23799 | 17270 ft | 365 kts | 243° |
| 2026-05-05 18:15 | 52.23163 | 4.20016 | 18086 ft | 370 kts | 244° |
| 2026-05-05 18:16 | 52.22061 | 4.16178 | 18792 ft | 376 kts | 244° |
| 2026-05-05 18:16 | 52.20934 | 4.12317 | 19528 ft | 381 kts | 243° |
| 2026-05-05 18:16 | 52.19774 | 4.08428 | 19999 ft | 381 kts | 242° |
| 2026-05-05 18:16 | 52.18560 | 4.04606 | 19955 ft | 378 kts | 240° |
| 2026-05-05 18:17 | 52.17292 | 4.00860 | 19940 ft | 378 kts | 240° |
| 2026-05-05 18:17 | 52.16028 | 3.97169 | 19929 ft | 376 kts | 239° |
| 2026-05-05 18:17 | 52.14757 | 3.93463 | 19935 ft | 375 kts | 240° |
| 2026-05-05 18:17 | 52.13476 | 3.89733 | 19933 ft | 375 kts | 240° |
| 2026-05-05 18:18 | 52.12208 | 3.86038 | 19927 ft | 375 kts | 240° |
| 2026-05-05 18:18 | 52.10939 | 3.82342 | 19924 ft | 374 kts | 240° |
| 2026-05-05 18:18 | 52.09665 | 3.78642 | 19924 ft | 375 kts | 240° |
| 2026-05-05 18:18 | 52.08390 | 3.74945 | 19923 ft | 376 kts | 240° |
| 2026-05-05 18:19 | 52.07113 | 3.71242 | 19926 ft | 374 kts | 240° |
| 2026-05-05 18:19 | 52.05841 | 3.67556 | 19922 ft | 374 kts | 239° |
| 2026-05-05 18:19 | 52.04580 | 3.63913 | 19917 ft | 374 kts | 240° |
| 2026-05-05 18:19 | 52.03296 | 3.60210 | 19910 ft | 377 kts | 239° |
| 2026-05-05 18:20 | 52.02017 | 3.56518 | 19907 ft | 376 kts | 239° |
| 2026-05-05 18:20 | 52.00740 | 3.52833 | 19904 ft | 374 kts | 239° |
| 2026-05-05 18:20 | 51.99402 | 3.49191 | 19922 ft | 375 kts | 236° |
| 2026-05-05 18:20 | 51.97899 | 3.45713 | 19927 ft | 378 kts | 233° |
| 2026-05-05 18:21 | 51.96337 | 3.42269 | 19914 ft | 378 kts | 232° |
| 2026-05-05 18:21 | 51.94781 | 3.38839 | 19914 ft | 378 kts | 233° |
| 2026-05-05 18:21 | 51.93231 | 3.35400 | 19916 ft | 379 kts | 233° |
| 2026-05-05 18:21 | 51.91682 | 3.31954 | 19914 ft | 378 kts | 233° |
| 2026-05-05 18:22 | 51.90133 | 3.28508 | 19920 ft | 377 kts | 233° |
| 2026-05-05 18:22 | 51.88606 | 3.25118 | 19922 ft | 378 kts | 233° |
| 2026-05-05 18:22 | 51.87051 | 3.21669 | 19923 ft | 378 kts | 233° |
| 2026-05-05 18:22 | 51.85602 | 3.18120 | 19927 ft | 378 kts | 242° |
| 2026-05-05 18:23 | 51.84788 | 3.14077 | 19928 ft | 380 kts | 260° |
| 2026-05-05 18:23 | 51.84468 | 3.09827 | 19944 ft | 381 kts | 264° |
| 2026-05-05 18:23 | 51.84212 | 3.05559 | 19914 ft | 381 kts | 264° |
| 2026-05-05 18:23 | 51.83950 | 3.01298 | 19923 ft | 381 kts | 263° |
| 2026-05-05 18:24 | 51.83677 | 2.97028 | 19920 ft | 381 kts | 263° |
| 2026-05-05 18:24 | 51.83420 | 2.92770 | 19911 ft | 381 kts | 264° |
| 2026-05-05 18:24 | 51.83159 | 2.88515 | 19909 ft | 379 kts | 264° |
| 2026-05-05 18:24 | 51.82868 | 2.84293 | 19940 ft | 379 kts | 263° |
| 2026-05-05 18:25 | 51.82561 | 2.80057 | 19938 ft | 379 kts | 263° |
| 2026-05-05 18:25 | 51.82362 | 2.77239 | 19930 ft | 379 kts | 263° |
| 2026-05-05 18:25 | 51.81973 | 2.71640 | 19929 ft | 379 kts | 263° |
| 2026-05-05 18:25 | 51.81681 | 2.67412 | 19928 ft | 379 kts | 263° |
| 2026-05-05 18:26 | 51.81390 | 2.63182 | 19929 ft | 379 kts | 263° |
| 2026-05-05 18:26 | 51.81103 | 2.58945 | 19932 ft | 379 kts | 263° |
| 2026-05-05 18:26 | 51.80816 | 2.54715 | 19932 ft | 378 kts | 263° |
| 2026-05-05 18:26 | 51.80525 | 2.50495 | 19932 ft | 379 kts | 263° |
| 2026-05-05 18:27 | 51.80230 | 2.46260 | 19931 ft | 379 kts | 263° |
| 2026-05-05 18:27 | 51.79933 | 2.42031 | 19933 ft | 379 kts | 263° |
| 2026-05-05 18:27 | 51.79634 | 2.37790 | 19700 ft | 381 kts | 263° |
| 2026-05-05 18:27 | 51.79334 | 2.33557 | 19429 ft | 378 kts | 263° |
| 2026-05-05 18:28 | 51.78730 | 2.25111 | 18428 ft | 377 kts | 264° |
| 2026-05-05 18:28 | 51.78429 | 2.20923 | 17872 ft | 373 kts | 264° |
| 2026-05-05 18:28 | 51.78184 | 2.16834 | 17427 ft | 368 kts | 265° |
| 2026-05-05 18:29 | 51.77949 | 2.12667 | 16932 ft | 366 kts | 265° |
| 2026-05-05 18:29 | 51.77717 | 2.08636 | 16452 ft | 364 kts | 265° |
| 2026-05-05 18:29 | 51.77480 | 2.04577 | 15970 ft | 361 kts | 264° |
| 2026-05-05 18:29 | 51.77217 | 2.00553 | 15498 ft | 359 kts | 265° |
| 2026-05-05 18:30 | 51.76983 | 1.96542 | 15013 ft | 358 kts | 265° |
| 2026-05-05 18:30 | 51.76753 | 1.92570 | 14547 ft | 351 kts | 265° |
| 2026-05-05 18:30 | 51.76521 | 1.88694 | 14078 ft | 342 kts | 264° |
| 2026-05-05 18:30 | 51.76290 | 1.84922 | 13617 ft | 333 kts | 264° |
| 2026-05-05 18:31 | 51.76061 | 1.81253 | 13200 ft | 324 kts | 264° |
| 2026-05-05 18:31 | 51.75837 | 1.77677 | 12770 ft | 316 kts | 264° |
| 2026-05-05 18:31 | 51.75617 | 1.74192 | 12357 ft | 309 kts | 265° |
| 2026-05-05 18:31 | 51.75401 | 1.70774 | 11955 ft | 303 kts | 265° |
| 2026-05-05 18:32 | 51.75191 | 1.67424 | 11557 ft | 298 kts | 266° |
| 2026-05-05 18:32 | 51.74993 | 1.64122 | 11158 ft | 294 kts | 265° |
| 2026-05-05 18:32 | 51.74797 | 1.60898 | 10787 ft | 291 kts | 265° |
| 2026-05-05 18:32 | 51.74591 | 1.57643 | 10374 ft | 291 kts | 265° |
| 2026-05-05 18:33 | 51.74388 | 1.54407 | 10012 ft | 288 kts | 265° |
| 2026-05-05 18:33 | 51.74063 | 1.51249 | 9646 ft | 285 kts | 253° |
| 2026-05-05 18:33 | 51.73114 | 1.48471 | 9335 ft | 280 kts | 237° |
| 2026-05-05 18:33 | 51.71969 | 1.45981 | 9102 ft | 272 kts | 234° |
| 2026-05-05 18:34 | 51.70843 | 1.43581 | 8919 ft | 262 kts | 235° |
| 2026-05-05 18:34 | 51.69790 | 1.41282 | 8894 ft | 250 kts | 236° |
| 2026-05-05 18:34 | 51.68779 | 1.39056 | 8860 ft | 244 kts | 237° |
| 2026-05-05 18:34 | 51.67794 | 1.36877 | 8978 ft | 241 kts | 237° |
| 2026-05-05 18:35 | 51.66793 | 1.34650 | 8976 ft | 246 kts | 236° |
| 2026-05-05 18:35 | 51.65783 | 1.32416 | 8974 ft | 246 kts | 236° |
| 2026-05-05 18:35 | 51.64774 | 1.30192 | 8969 ft | 245 kts | 236° |
| 2026-05-05 18:35 | 51.63768 | 1.27970 | 8933 ft | 247 kts | 238° |
| 2026-05-05 18:36 | 51.62737 | 1.25690 | 8589 ft | 253 kts | 236° |
| 2026-05-05 18:36 | 51.61702 | 1.23426 | 8336 ft | 249 kts | 237° |
| 2026-05-05 18:36 | 51.60685 | 1.21191 | 8104 ft | 245 kts | 236° |
| 2026-05-05 18:36 | 51.59681 | 1.18993 | 7848 ft | 243 kts | 237° |
| 2026-05-05 18:37 | 51.58682 | 1.16803 | 7593 ft | 241 kts | 236° |
| 2026-05-05 18:37 | 51.57692 | 1.14630 | 7346 ft | 240 kts | 237° |
| 2026-05-05 18:37 | 51.56706 | 1.12463 | 7111 ft | 240 kts | 237° |
| 2026-05-05 18:37 | 51.55719 | 1.10296 | 6853 ft | 241 kts | 237° |
| 2026-05-05 18:38 | 51.54730 | 1.08124 | 6609 ft | 241 kts | 237° |
| 2026-05-05 18:38 | 51.53752 | 1.05976 | 6373 ft | 241 kts | 237° |
| 2026-05-05 18:38 | 51.52764 | 1.03803 | 6109 ft | 241 kts | 237° |
| 2026-05-05 18:38 | 51.51782 | 1.01643 | 5944 ft | 236 kts | 237° |
| 2026-05-05 18:39 | 51.50818 | 0.99533 | 5947 ft | 235 kts | 237° |
| 2026-05-05 18:39 | 51.49851 | 0.97409 | 6011 ft | 235 kts | 237° |
| 2026-05-05 18:39 | 51.48876 | 0.95264 | 6014 ft | 238 kts | 237° |
| 2026-05-05 18:39 | 51.47929 | 0.93105 | 6011 ft | 234 kts | 245° |
| 2026-05-05 18:40 | 51.47505 | 0.90650 | 6012 ft | 227 kts | 272° |
| 2026-05-05 18:40 | 51.47572 | 0.88121 | 6039 ft | 227 kts | 278° |
| 2026-05-05 18:40 | 51.47662 | 0.86447 | 6029 ft | 228 kts | 278° |
| 2026-05-05 18:40 | 51.47791 | 0.83909 | 5998 ft | 227 kts | 278° |
| 2026-05-05 18:41 | 51.47905 | 0.81385 | 6004 ft | 227 kts | 277° |
| 2026-05-05 18:41 | 51.48007 | 0.78859 | 6032 ft | 227 kts | 277° |
| 2026-05-05 18:41 | 51.48104 | 0.76332 | 6027 ft | 227 kts | 277° |
| 2026-05-05 18:41 | 51.48197 | 0.73804 | 6026 ft | 227 kts | 277° |
| 2026-05-05 18:42 | 51.48293 | 0.71280 | 6027 ft | 227 kts | 277° |
| 2026-05-05 18:42 | 51.48386 | 0.68747 | 6049 ft | 227 kts | 278° |
| 2026-05-05 18:42 | 51.48484 | 0.66252 | 6047 ft | 227 kts | 277° |
| 2026-05-05 18:42 | 51.48575 | 0.63694 | 6044 ft | 227 kts | 277° |
| 2026-05-05 18:43 | 51.48665 | 0.61161 | 6035 ft | 228 kts | 277° |
| 2026-05-05 18:43 | 51.48756 | 0.58622 | 5994 ft | 227 kts | 277° |
| 2026-05-05 18:43 | 51.48846 | 0.56096 | 6000 ft | 227 kts | 277° |
| 2026-05-05 18:43 | 51.48933 | 0.53595 | 6005 ft | 229 kts | 276° |
| 2026-05-05 18:44 | 51.49020 | 0.51041 | 6007 ft | 227 kts | 277° |
| 2026-05-05 18:44 | 51.49104 | 0.48502 | 5847 ft | 231 kts | 277° |
| 2026-05-05 18:44 | 51.48930 | 0.45916 | 5441 ft | 241 kts | 252° |
| 2026-05-05 18:44 | 51.48181 | 0.43589 | 5465 ft | 230 kts | 240° |
| 2026-05-05 18:45 | 51.47299 | 0.41450 | 5455 ft | 230 kts | 240° |
| 2026-05-05 18:45 | 51.46437 | 0.39291 | 5452 ft | 228 kts | 241° |
| 2026-05-05 18:45 | 51.45626 | 0.37176 | 5425 ft | 217 kts | 242° |
| 2026-05-05 18:45 | 51.44836 | 0.35059 | 5138 ft | 224 kts | 242° |
| 2026-05-05 18:46 | 51.44038 | 0.32886 | 4903 ft | 229 kts | 243° |
| 2026-05-05 18:46 | 51.43254 | 0.30651 | 4661 ft | 229 kts | 250° |
| 2026-05-05 18:46 | 51.42954 | 0.28205 | 4316 ft | 226 kts | 273° |
| 2026-05-05 18:46 | 51.43064 | 0.25705 | 3993 ft | 225 kts | 280° |
| 2026-05-05 18:47 | 51.43235 | 0.23291 | 3989 ft | 210 kts | 279° |
| 2026-05-05 18:47 | 51.43355 | 0.20989 | 3706 ft | 212 kts | 277° |
| 2026-05-05 18:47 | 51.43455 | 0.18517 | 2929 ft | 231 kts | 276° |
| 2026-05-05 18:47 | 51.43540 | 0.15944 | 2616 ft | 225 kts | 275° |
| 2026-05-05 18:48 | 51.43616 | 0.13513 | 2497 ft | 212 kts | 275° |
| 2026-05-05 18:48 | 51.43683 | 0.11251 | 2527 ft | 197 kts | 276° |
| 2026-05-05 18:48 | 51.43752 | 0.09073 | 2535 ft | 194 kts | 276° |
| 2026-05-05 18:48 | 51.43827 | 0.06873 | 2197 ft | 211 kts | 275° |
| 2026-05-05 18:49 | 51.43902 | 0.04603 | 2193 ft | 195 kts | 275° |
| 2026-05-05 18:49 | 51.43965 | 0.02418 | 1929 ft | 195 kts | 275° |
| 2026-05-05 18:49 | 51.44025 | 0.00362 | 1956 ft | 176 kts | 275° |
| 2026-05-05 18:49 | 51.44086 | -0.01567 | 1915 ft | 170 kts | 276° |
| 2026-05-05 18:50 | 51.44152 | -0.03422 | 1891 ft | 162 kts | 276° |
| 2026-05-05 18:50 | 51.44213 | -0.05160 | 1833 ft | 152 kts | 276° |
| 2026-05-05 18:50 | 51.44275 | -0.06842 | 1703 ft | 150 kts | 277° |
| 2026-05-05 18:50 | 51.44327 | -0.08458 | 1682 ft | 142 kts | 277° |
| 2026-05-05 18:51 | 51.44627 | -0.09945 | 1780 ft | 141 kts | 311° |
| 2026-05-05 18:51 | 51.45427 | -0.10757 | 1944 ft | 135 kts | 349° |
| 2026-05-05 18:51 | 51.46365 | -0.11076 | 2204 ft | 144 kts | 351° |
| 2026-05-05 18:51 | 51.47356 | -0.11427 | 2040 ft | 145 kts | 350° |
| 2026-05-05 18:52 | 51.48304 | -0.11753 | 2039 ft | 138 kts | 356° |
| 2026-05-05 18:52 | 51.49233 | -0.11474 | 1983 ft | 135 kts | 33° |
| 2026-05-05 18:52 | 51.49799 | -0.10343 | 2079 ft | 131 kts | 68° |
| 2026-05-05 18:52 | 51.50110 | -0.09005 | 2092 ft | 128 kts | 65° |
| 2026-05-05 18:53 | 51.50515 | -0.07743 | 1989 ft | 124 kts | 61° |
| 2026-05-05 18:53 | 51.50863 | -0.06437 | 2006 ft | 129 kts | 80° |
| 2026-05-05 18:53 | 51.50822 | -0.05012 | 2004 ft | 132 kts | 95° |
| 2026-05-05 18:53 | 51.50777 | -0.03540 | 1955 ft | 133 kts | 88° |
| 2026-05-05 18:54 | 51.50764 | -0.02010 | 1501 ft | 135 kts | 91° |
| 2026-05-05 18:54 | 51.50704 | -0.00563 | 1206 ft | 125 kts | 92° |
| 2026-05-05 18:54 | 51.50663 | 0.00827 | 851 ft | 124 kts | 92° |
| 2026-05-05 18:54 | 51.50626 | 0.02208 | 551 ft | 124 kts | 92° |
| 2026-05-05 18:55 | 51.50580 | 0.03620 | 204 ft | 124 kts | 92° |
| 2026-05-05 18:55 | 51.50539 | 0.04959 | 31 ft | 115 kts | 94° |
| 2026-05-05 18:55 | 51.50508 | 0.05995 | 24 ft | 68 kts | 93° |
| 2026-05-05 18:55 | 51.50494 | 0.06425 | 24 ft | 25 kts | 93° |
| 2026-05-05 18:56 | 51.50464 | 0.06587 | 24 ft | 13 kts | 164° |
| 2026-05-05 18:56 | 51.50408 | 0.06522 | 24 ft | 12 kts | 267° |
| 2026-05-05 18:56 | 51.50412 | 0.06382 | 24 ft | 13 kts | 274° |
| 2026-05-05 18:56 | 51.50414 | 0.06223 | 24 ft | 15 kts | 271° |
| 2026-05-05 18:57 | 51.50422 | 0.06047 | 24 ft | 17 kts | 272° |
| 2026-05-05 18:57 | 51.50428 | 0.05850 | 24 ft | 19 kts | 273° |
| 2026-05-05 18:57 | 51.50434 | 0.05644 | 24 ft | 15 kts | 272° |
| 2026-05-05 18:57 | 51.50440 | 0.05496 | 24 ft | 13 kts | 272° |
| 2026-05-05 18:58 | 51.50443 | 0.05337 | 24 ft | 15 kts | 273° |
| 2026-05-05 18:58 | 51.50450 | 0.05158 | 24 ft | 17 kts | 272° |
| 2026-05-05 18:58 | 51.50464 | 0.05018 | 27 ft | 4 kts | 274° |
| 2026-05-05 18:58 | 51.50463 | 0.04966 | 24 ft | 6 kts | 271° |
| 2026-05-05 18:59 | 51.50462 | 0.04900 | 24 ft | 1 kts | 248° |
| 2026-05-05 18:59 | 51.50448 | 0.04881 | 28 ft | 4 kts | 218° |
| 2026-05-05 18:59 | 51.50428 | 0.04849 | 24 ft | 3 kts | 236° |
| 2026-05-05 18:59 | 51.50429 | 0.04830 | 24 ft | 1 kts | 282° |
| 2026-05-05 19:00 | 51.50431 | 0.04829 | 24 ft | 0 kts | 303° |
| 2026-05-05 19:00 | 51.50435 | 0.04823 | 26 ft | 1 kts | 312° |
| 2026-05-05 19:00 | 51.50439 | 0.04817 | 25 ft | 0 kts | 313° |